Time;durP1;ratioP1;P1;durP2;ratioP2;P2;SDS_P1;SDS_P2;PMS_P1;PMS_P2;Temp;Humidity;BMP_temperature;BMP_pressure;BME280_temperature;BME280_humidity;BME280_pressure;Samples;Min_cycle;Max_cycle;Signal;HPM_P1;HPM_P2
2023/04/10 00:00:31;;;;;;;;;;;;;;;3.42;100.00;96405.22;5099858;27;19924;-75
2023/04/10 00:02:58;;;;;;;;;;;;;;;3.32;100.00;96404.59;5123173;27;19938;-74
2023/04/10 00:05:24;;;;;;;;;;;;;;;3.28;100.00;96397.88;5115387;27;19924;-74
2023/04/10 00:07:51;;;;;;;;;;;;;;;3.33;100.00;96391.75;5120832;27;19931;-75
2023/04/10 00:10:17;;;;;;;;;;;;;;;3.27;100.00;96394.47;5109405;27;20416;-74
2023/04/10 00:12:43;;;;;;;;;;;;;;;3.29;100.00;96389.31;5121797;27;19923;-74
2023/04/10 00:15:11;;;;;;;;;;;;;;;3.35;100.00;96391.72;5106577;27;19923;-74
2023/04/10 00:17:38;;;;;;;;;;;;;;;3.32;100.00;96395.19;5110077;27;20297;-74
2023/04/10 00:20:05;;;;;;;;;;;;;;;3.35;100.00;96389.16;5121412;27;19931;-74
2023/04/10 00:22:31;;;;;;;;;;;;;;;3.34;100.00;96383.22;5104819;27;19928;-74
2023/04/10 00:24:57;;;;;;;;;;;;;;;3.31;100.00;96379.88;5124279;27;19927;-74
2023/04/10 00:27:24;;;;;;;;;;;;;;;3.24;100.00;96376.63;5105364;27;20309;-74
2023/04/10 00:29:50;;;;;;;;;;;;;;;3.19;100.00;96372.47;5129369;27;20009;-74
2023/04/10 00:32:18;;;;;;;;;;;;;;;3.18;100.00;96369.09;5113298;27;19947;-74
2023/04/10 00:34:44;;;;;;;;;;;;;;;3.11;100.00;96362.44;5122367;27;19931;-74
2023/04/10 00:37:10;;;;;;;;;;;;;;;3.15;100.00;96367.47;5108380;27;20015;-74
2023/04/10 00:39:37;;;;;;;;;;;;;;;3.12;100.00;96364.97;5103040;27;19923;-75
2023/04/10 00:42:08;;;;;;;;;;;;;;;2.80;100.00;96357.19;5110559;27;19931;-74
2023/04/10 00:44:36;;;;;;;;;;;;;;;2.67;100.00;96354.09;5123766;27;19924;-74
2023/04/10 00:47:03;;;;;;;;;;;;;;;2.77;100.00;96360.66;5126295;27;19933;-75
2023/04/10 00:49:31;;;;;;;;;;;;;;;2.89;100.00;96359.53;5114923;27;19924;-74
2023/04/10 00:51:57;;;;;;;;;;;;;;;2.76;100.00;96365.81;5120572;27;19927;-74
2023/04/10 00:54:23;;;;;;;;;;;;;;;2.70;100.00;96365.94;5115942;27;19930;-74
2023/04/10 00:56:50;;;;;;;;;;;;;;;2.50;100.00;96371.50;5123046;27;20416;-74
2023/04/10 00:59:16;;;;;;;;;;;;;;;2.63;100.00;96373.78;5115097;27;20425;-74
2023/04/10 01:01:43;;;;;;;;;;;;;;;2.73;100.00;96379.50;5117318;27;19931;-74
2023/04/10 01:04:10;;;;;;;;;;;;;;;2.78;100.00;96374.28;5125978;27;19923;-74
2023/04/10 01:06:47;;;;;;;;;;;;;;;2.80;100.00;96370.81;5108558;27;19923;-74
2023/04/10 01:09:17;;;;;;;;;;;;;;;2.77;100.00;96362.38;5117773;27;19935;-74
2023/04/10 01:11:48;;;;;;;;;;;;;;;2.63;100.00;96366.09;5104573;27;20285;-74
2023/04/10 01:14:19;;;;;;;;;;;;;;;2.48;100.00;96360.47;5119400;27;19924;-74
2023/04/10 01:16:50;;;;;;;;;;;;;;;2.56;100.00;96366.25;5097837;27;19947;-74
2023/04/10 01:19:25;;;;;;;;;;;;;;;2.55;100.00;96362.00;5118341;27;19935;-75
2023/04/10 01:21:54;;;;;;;;;;;;;;;2.59;100.00;96361.91;5106471;27;19924;-75
2023/04/10 01:24:32;;;;;;;;;;;;;;;2.50;100.00;96361.28;5116336;27;19924;-73
2023/04/10 01:27:09;;;;;;;;;;;;;;;2.51;100.00;96357.84;5112943;27;20351;-75
2023/04/10 01:29:40;;;;;;;;;;;;;;;2.53;100.00;96353.56;5127428;27;20381;-75
2023/04/10 01:32:10;;;;;;;;;;;;;;;2.49;100.00;96351.94;5110915;27;20381;-73
2023/04/10 01:34:39;;;;;;;;;;;;;;;2.38;100.00;96352.16;5116666;27;19935;-74
2023/04/10 01:37:08;;;;;;;;;;;;;;;2.28;100.00;96348.13;5108143;27;19924;-74
2023/04/10 01:39:37;;;;;;;;;;;;;;;1.95;100.00;96360.69;5113035;28;19931;-74
2023/04/10 01:42:05;;;;;;;;;;;;;;;1.79;100.00;96361.88;5105742;27;19936;-73
2023/04/10 01:44:32;;;;;;;;;;;;;;;1.61;100.00;96366.44;5109255;27;19931;-75
2023/04/10 01:47:00;;;;;;;;;;;;;;;1.45;100.00;96365.88;5125374;27;19923;-74
2023/04/10 01:49:28;;;;;;;;;;;;;;;1.55;100.00;96363.16;5113619;27;19930;-73
2023/04/10 01:51:57;;;;;;;;;;;;;;;1.67;100.00;96366.34;5129274;27;19930;-74
2023/04/10 01:54:24;;;;;;;;;;;;;;;1.82;100.00;96366.94;5117061;27;19928;-74
2023/04/10 01:56:50;;;;;;;;;;;;;;;1.79;100.00;96364.44;5124541;27;20381;-75
2023/04/10 01:59:17;;;;;;;;;;;;;;;1.80;100.00;96376.31;5118780;27;19935;-74
2023/04/10 02:01:43;;;;;;;;;;;;;;;1.77;100.00;96363.59;5106214;28;19936;-73
2023/04/10 02:04:11;;;;;;;;;;;;;;;1.73;100.00;96357.72;5109716;27;20398;-74
2023/04/10 02:06:40;;;;;;;;;;;;;;;1.97;100.00;96358.97;5112989;27;19928;-74
2023/04/10 02:09:10;;;;;;;;;;;;;;;1.86;100.00;96360.88;5122430;27;19927;-74
2023/04/10 02:11:40;;;;;;;;;;;;;;;1.70;100.00;96355.22;5117165;27;19923;-74
2023/04/10 02:14:10;;;;;;;;;;;;;;;1.71;100.00;96356.91;5123291;27;19924;-75
2023/04/10 02:16:37;;;;;;;;;;;;;;;1.66;100.00;96363.78;5096875;27;19924;-75
2023/04/10 02:19:05;;;;;;;;;;;;;;;1.45;100.00;96365.03;5118069;27;19927;-74
2023/04/10 02:21:33;;;;;;;;;;;;;;;1.10;100.00;96366.47;5106181;27;20410;-74
2023/04/10 02:24:00;;;;;;;;;;;;;;;1.10;100.00;96358.81;5117266;27;19924;-74
2023/04/10 02:26:26;;;;;;;;;;;;;;;1.24;100.00;96360.31;5115373;27;19924;-74
2023/04/10 02:28:53;;;;;;;;;;;;;;;1.40;100.00;96361.72;5122612;27;19927;-74
2023/04/10 02:31:19;;;;;;;;;;;;;;;1.30;100.00;96361.03;5114904;27;19980;-74
2023/04/10 02:33:46;;;;;;;;;;;;;;;1.26;100.00;96359.41;5116384;27;19931;-74
2023/04/10 02:36:12;;;;;;;;;;;;;;;1.25;100.00;96356.88;5117762;27;19934;-74
2023/04/10 02:38:40;;;;;;;;;;;;;;;1.18;100.00;96356.97;5119347;27;19928;-74
2023/04/10 02:41:06;;;;;;;;;;;;;;;1.25;100.00;96355.16;5113092;27;19924;-74
2023/04/10 02:43:33;;;;;;;;;;;;;;;1.09;100.00;96359.69;5113880;27;19954;-73
2023/04/10 02:45:59;;;;;;;;;;;;;;;1.12;100.00;96358.78;5108445;27;19931;-74
2023/04/10 02:48:25;;;;;;;;;;;;;;;0.99;100.00;96350.47;5119852;27;19955;-73
2023/04/10 02:50:55;;;;;;;;;;;;;;;0.98;100.00;96356.47;5120920;28;20298;-74
2023/04/10 02:53:22;;;;;;;;;;;;;;;1.00;100.00;96356.41;5117535;28;19924;-74
2023/04/10 02:55:49;;;;;;;;;;;;;;;1.06;100.00;96348.69;5122452;28;19931;-74
2023/04/10 02:58:16;;;;;;;;;;;;;;;1.13;100.00;96356.22;5117571;28;19970;-75
2023/04/10 03:00:47;;;;;;;;;;;;;;;1.18;100.00;96353.56;5110507;28;20293;-74
2023/04/10 03:03:13;;;;;;;;;;;;;;;1.19;100.00;96353.56;5099078;28;20401;-74
2023/04/10 03:05:40;;;;;;;;;;;;;;;1.25;100.00;96347.50;5120835;27;19928;-74
2023/04/10 03:08:06;;;;;;;;;;;;;;;1.24;100.00;96348.38;5116128;27;19931;-75
2023/04/10 03:10:32;;;;;;;;;;;;;;;1.33;100.00;96342.25;5123530;27;20317;-75
2023/04/10 03:13:00;;;;;;;;;;;;;;;1.26;100.00;96335.59;5118869;27;19931;-74
2023/04/10 03:15:26;;;;;;;;;;;;;;;1.21;100.00;96335.66;5116552;27;19924;-73
2023/04/10 03:17:52;;;;;;;;;;;;;;;0.95;100.00;96334.38;5106647;27;20592;-74
2023/04/10 03:20:19;;;;;;;;;;;;;;;0.95;100.00;96334.38;5118969;27;19924;-74
2023/04/10 03:22:45;;;;;;;;;;;;;;;1.00;100.00;96331.75;5115406;27;19931;-74
2023/04/10 03:25:11;;;;;;;;;;;;;;;1.07;100.00;96333.34;5126082;27;20298;-74
2023/04/10 03:27:38;;;;;;;;;;;;;;;1.07;100.00;96328.25;5116410;27;19928;-76
2023/04/10 03:30:06;;;;;;;;;;;;;;;1.06;100.00;96316.34;5124403;27;19930;-74
2023/04/10 03:32:33;;;;;;;;;;;;;;;1.07;100.00;96329.94;5120341;27;19931;-75
2023/04/10 03:34:59;;;;;;;;;;;;;;;1.07;100.00;96329.94;5118325;27;19971;-75
2023/04/10 03:37:26;;;;;;;;;;;;;;;1.09;100.00;96328.22;5107746;27;19924;-74
2023/04/10 03:39:52;;;;;;;;;;;;;;;1.04;100.00;96330.88;5115881;27;19974;-75
2023/04/10 03:42:19;;;;;;;;;;;;;;;1.07;100.00;96330.78;5113874;27;19924;-75
2023/04/10 03:44:45;;;;;;;;;;;;;;;1.09;100.00;96329.06;5120590;27;20400;-75
2023/04/10 03:47:13;;;;;;;;;;;;;;;1.13;100.00;96324.75;5126850;27;19924;-73
2023/04/10 03:49:39;;;;;;;;;;;;;;;1.10;100.00;96317.16;5126047;27;20506;-74
2023/04/10 03:52:05;;;;;;;;;;;;;;;1.09;100.00;96307.81;5121897;27;19929;-75
2023/04/10 03:54:31;;;;;;;;;;;;;;;1.13;100.00;96302.63;5119998;27;21109;-74
2023/04/10 03:56:58;;;;;;;;;;;;;;;1.09;100.00;96303.56;5120877;27;19931;-74
2023/04/10 03:59:25;;;;;;;;;;;;;;;1.10;100.00;96301.84;5121740;27;20404;-74
2023/04/10 04:01:51;;;;;;;;;;;;;;;1.15;100.00;96300.03;5127138;27;19931;-75
2023/04/10 04:04:19;;;;;;;;;;;;;;;1.16;100.00;96304.31;5118137;27;19925;-75
2023/04/10 04:06:45;;;;;;;;;;;;;;;1.13;100.00;96289.88;5110214;27;19930;-75
2023/04/10 04:09:12;;;;;;;;;;;;;;;1.05;100.00;96296.84;5122657;27;19935;-74
2023/04/10 04:11:38;;;;;;;;;;;;;;;0.87;100.00;96292.88;5115844;27;19931;-75
2023/04/10 04:14:04;;;;;;;;;;;;;;;0.81;100.00;96299.78;5123028;27;19923;-75
2023/04/10 04:16:30;;;;;;;;;;;;;;;0.72;100.00;96299.06;5112114;27;19931;-75
2023/04/10 04:18:57;;;;;;;;;;;;;;;0.76;100.00;96294.75;5116131;27;19927;-74
2023/04/10 04:21:24;;;;;;;;;;;;;;;0.85;100.00;96294.59;5109759;27;20041;-75
2023/04/10 04:23:51;;;;;;;;;;;;;;;0.78;100.00;96294.72;5124429;27;20395;-73
2023/04/10 04:26:17;;;;;;;;;;;;;;;0.69;100.00;96291.47;5115938;27;19935;-74
2023/04/10 04:28:43;;;;;;;;;;;;;;;0.63;100.00;96294.13;5116260;27;19939;-73
2023/04/10 04:31:10;;;;;;;;;;;;;;;0.62;100.00;96289.88;5121524;27;20298;-75
2023/04/10 04:33:36;;;;;;;;;;;;;;;0.66;100.00;96296.59;5122124;27;19930;-75
2023/04/10 04:36:02;;;;;;;;;;;;;;;0.68;100.00;96299.13;5113255;27;20336;-75
2023/04/10 04:38:30;;;;;;;;;;;;;;;0.61;100.00;96300.94;5113455;27;19931;-75
2023/04/10 04:40:56;;;;;;;;;;;;;;;0.44;100.00;96306.28;5116481;27;20394;-75
2023/04/10 04:43:22;;;;;;;;;;;;;;;0.29;100.00;96310.75;5126793;27;19931;-75
2023/04/10 04:45:48;;;;;;;;;;;;;;;0.41;100.00;96311.44;5113691;27;19924;-75
2023/04/10 04:48:15;;;;;;;;;;;;;;;0.57;100.00;96306.94;5114192;27;20394;-75
2023/04/10 04:50:41;;;;;;;;;;;;;;;0.68;100.00;96312.72;5127016;27;19924;-75
2023/04/10 04:53:07;;;;;;;;;;;;;;;0.71;100.00;96320.34;5111922;27;19942;-75
2023/04/10 04:55:35;;;;;;;;;;;;;;;0.75;100.00;96318.56;5125365;27;20398;-74
2023/04/10 04:58:01;;;;;;;;;;;;;;;0.78;100.00;96321.09;5118426;27;19935;-74
2023/04/10 05:00:28;;;;;;;;;;;;;;;0.86;100.00;96318.41;5107887;27;20352;-74
2023/04/10 05:02:54;;;;;;;;;;;;;;;0.88;100.00;96317.50;5119475;27;19927;-75
2023/04/10 05:05:20;;;;;;;;;;;;;;;0.92;100.00;96315.75;5111475;27;19924;-75
2023/04/10 05:07:46;;;;;;;;;;;;;;;0.79;100.00;96319.38;5122830;27;19930;-75
2023/04/10 05:10:13;;;;;;;;;;;;;;;0.76;100.00;96322.81;5111793;27;19924;-75
2023/04/10 05:12:42;;;;;;;;;;;;;;;0.68;100.00;96315.28;5127415;27;19947;-75
2023/04/10 05:15:08;;;;;;;;;;;;;;;0.70;100.00;96323.75;5119665;27;19958;-75
2023/04/10 05:17:34;;;;;;;;;;;;;;;0.85;100.00;96321.81;5110701;27;19927;-74
2023/04/10 05:20:01;;;;;;;;;;;;;;;0.88;100.00;96321.75;5122523;27;19930;-75
2023/04/10 05:22:27;;;;;;;;;;;;;;;0.82;100.00;96316.78;5113152;27;19951;-74
2023/04/10 05:24:53;;;;;;;;;;;;;;;0.81;100.00;96323.56;5123146;27;19927;-75
2023/04/10 05:27:20;;;;;;;;;;;;;;;0.69;100.00;96319.50;5110793;27;19928;-74
2023/04/10 05:29:48;;;;;;;11.95;10.13;;;;;;;0.69;100.00;96321.22;5126268;27;19924;-74
2023/04/10 05:32:14;;;;;;;19.58;11.48;;;;;;;0.79;100.00;96317.66;5108461;27;20541;-74
2023/04/10 05:34:40;;;;;;;18.80;13.45;;;;;;;0.85;100.00;96324.34;5114944;27;24451;-74
2023/04/10 05:37:08;;;;;;;16.38;13.88;;;;;;;0.89;100.00;96323.44;5116205;27;24461;-74
2023/04/10 05:39:34;;;;;;;;;;;;;;;0.95;100.00;96324.19;5113519;27;20182;-74
2023/04/10 05:42:01;;;;;;;;;;;;;;;1.01;100.00;96325.81;5113687;27;20456;-74
2023/04/10 05:44:28;;;;;;;;;;;;;;;1.15;100.00;96334.06;5118345;27;20378;-74
2023/04/10 05:46:55;;;;;;;;;;;;;;;1.21;100.00;96331.41;5126786;27;19927;-73
2023/04/10 05:49:21;;;;;;;;;;;;;;;1.37;100.00;96329.44;5106271;27;19946;-74
2023/04/10 05:51:49;;;;;;;13.00;11.35;;;;;;;1.54;100.00;96330.84;5120044;27;19920;-75
2023/04/10 05:54:15;;;;;;;14.50;10.15;;;;;;;1.56;100.00;96331.63;5120717;27;20044;-75
2023/04/10 05:56:42;;;;;;;13.10;11.20;;;;;;;1.65;100.00;96336.59;5123965;27;20052;-75
2023/04/10 05:59:08;;;;;;;12.43;11.07;;;;;;;1.65;100.00;96334.88;5117576;27;20055;-75
2023/04/10 06:01:35;;;;;;;;;;;;;;;1.71;100.00;96331.38;5106970;27;20043;-75
2023/04/10 06:04:02;;;;;;;;;;;;;;;1.79;100.00;96336.34;5124630;27;20296;-75
2023/04/10 06:06:28;;;;;;;;;;;;;;;1.84;100.00;96329.41;5099965;27;19962;-74
2023/04/10 06:08:55;;;;;;;;;;;;;;;1.92;100.00;96333.50;5119123;27;20293;-74
2023/04/10 06:11:22;;;;;;;10.67;9.67;;;;;;;2.03;100.00;96338.38;5110501;27;19960;-75
2023/04/10 06:13:48;;;;;;;12.15;9.63;;;;;;;2.18;100.00;96334.69;5125081;27;20051;-75
2023/04/10 06:16:15;;;;;;;10.98;9.40;;;;;;;2.32;100.00;96334.41;5104985;27;20055;-75
2023/04/10 06:18:41;;;;;;;;;;;;;;;2.45;100.00;96329.84;5117351;27;20131;-75
2023/04/10 06:21:09;;;;;;;;;;;;;;;2.62;100.00;96330.31;5107574;27;19920;-74
2023/04/10 06:23:36;;;;;;;;;;;;;;;2.72;100.00;96324.13;5119728;27;20022;-74
2023/04/10 06:26:03;;;;;;;;;;;;;;;2.65;100.00;96325.97;5111155;27;20005;-75
2023/04/10 06:28:29;;;;;;;;;;;;;;;2.37;100.00;96322.34;5113618;27;19920;-75
2023/04/10 06:30:56;;;;;;;;;;;;;;;2.56;100.00;96320.22;5122540;27;19923;-74
2023/04/10 06:33:22;;;;;;;;;;;;;;;2.47;100.00;96323.84;5121907;27;20009;-75
2023/04/10 06:35:49;;;;;;;;;;;;;;;2.45;100.00;96315.38;5114237;27;19935;-75
2023/04/10 06:38:17;;;;;;;;;;;;;;;2.45;100.00;96310.25;5119906;27;20373;-75
2023/04/10 06:40:43;;;;;;;;;;;;;;;2.59;100.00;96312.47;5113412;27;19926;-75
2023/04/10 06:43:09;;;;;;;;;;;;;;;2.88;100.00;96309.25;5120079;27;19926;-75
2023/04/10 06:45:36;;;;;;;;;;;;;;;3.18;100.00;96317.88;5117635;27;19920;-75
2023/04/10 06:48:02;;;;;;;;;;;;;;;3.45;100.00;96316.38;5108196;27;19927;-75
2023/04/10 06:50:28;;;;;;;;;;;;;;;3.67;100.00;96306.41;5124837;27;19923;-74
2023/04/10 06:52:58;;;;;;;;;;;;;;;3.70;100.00;96311.41;5120136;28;20386;-75
2023/04/10 06:55:26;;;;;;;;;;;;;;;3.75;100.00;96301.91;5125913;28;19923;-75
2023/04/10 06:57:52;;;;;;;;;;;;;;;3.90;100.00;96302.38;5116128;28;20283;-75
2023/04/10 07:00:19;;;;;;;;;;;;;;;3.95;100.00;96303.06;5106835;28;19927;-74
2023/04/10 07:02:46;;;;;;;;;;;;;;;3.70;100.00;96305.44;5121364;28;19972;-74
2023/04/10 07:05:12;;;;;;;;;;;;;;;3.73;100.00;96311.34;5115252;28;19946;-74
2023/04/10 07:07:38;;;;;;;;;;;;;;;4.07;100.00;96300.97;5123784;28;20393;-74
2023/04/10 07:10:05;;;;;;;;;;;;;;;4.24;100.00;96304.78;5107460;28;19924;-75
2023/04/10 07:12:33;;;;;;;;;;;;;;;4.19;100.00;96302.38;5122612;28;19924;-75
2023/04/10 07:15:00;;;;;;;;;;;;;;;4.51;100.00;96303.13;5116605;28;20301;-75
2023/04/10 07:17:26;;;;;;;;;;;;;;;4.56;100.00;96294.41;5098942;28;20105;-75
2023/04/10 07:19:52;;;;;;;;;;;;;;;4.52;100.00;96300.50;5114280;28;20377;-75
2023/04/10 07:22:18;;;;;;;;;;;;;;;4.76;100.00;96300.66;5110517;28;19927;-75
2023/04/10 07:24:45;;;;;;;;;;;;;;;5.06;100.00;96303.97;5120985;28;19923;-75
2023/04/10 07:27:11;;;;;;;;;;;;;;;5.24;100.00;96305.94;5097779;28;20019;-76
2023/04/10 07:29:39;;;;;;;;;;;;;;;5.42;100.00;96303.63;5118020;28;20293;-75
2023/04/10 07:32:06;;;;;;;;;;;;;;;5.70;100.00;96309.47;5108709;28;19924;-75
2023/04/10 07:34:32;;;;;;;;;;;;;;;5.95;100.00;96306.09;5118988;28;20010;-75
2023/04/10 07:36:58;;;;;;;;;;;;;;;6.09;100.00;96300.47;5105563;28;19927;-75
2023/04/10 07:39:24;;;;;;;;;;;;;;;6.06;99.55;96302.22;5112463;28;19947;-74
2023/04/10 07:41:52;;;;;;;;;;;;;;;6.17;97.78;96313.88;5113952;28;20292;-75
2023/04/10 07:44:19;;;;;;;;;;;;;;;6.45;97.23;96309.38;5113429;28;19920;-74
2023/04/10 07:46:46;;;;;;;;;;;;;;;6.73;93.07;96306.56;5118666;28;20329;-74
2023/04/10 07:49:12;;;;;;;;;;;;;;;6.83;92.16;96306.22;5115960;28;19931;-74
2023/04/10 07:51:39;;;;;;;;;;;;;;;7.02;88.88;96305.41;5112956;27;20408;-74
2023/04/10 07:54:05;;;;;;;;;;;;;;;7.32;89.85;96297.34;5105731;27;19920;-74
2023/04/10 07:56:31;;;;;;;;;;;;;;;7.27;87.98;96299.28;5126264;27;20374;-75
2023/04/10 07:58:59;;;;;;;;;;;;;;;7.30;85.05;96293.97;5127154;27;19926;-75
2023/04/10 08:01:26;;;;;;;;;;;;;;;7.35;84.19;96299.78;5114533;27;19920;-75
2023/04/10 08:03:54;;;;;;;;;;;;;;;7.72;84.69;96288.75;5124486;27;20018;-75
2023/04/10 08:06:21;;;;;;;;;;;;;;;8.29;83.32;96282.81;5106798;27;20377;-75
2023/04/10 08:08:47;;;;;;;;;;;;;;;8.39;79.73;96284.94;5125150;27;19928;-75
2023/04/10 08:11:24;;;;;;;;;;;;;;;8.38;79.13;96285.88;5113365;27;19973;-75
2023/04/10 08:13:51;;;;;;;;;;;;;;;8.48;79.17;96283.69;5126193;27;20385;-75
2023/04/10 08:16:18;;;;;;;;;;;;;;;8.68;77.66;96287.94;5106493;27;19967;-75
2023/04/10 08:18:45;;;;;;;;;;;;;;;8.63;77.54;96287.28;5115374;27;19946;-75
2023/04/10 08:21:12;;;;;;;;;;;;;;;8.62;76.13;96283.88;5115828;27;20396;-75
2023/04/10 08:23:39;;;;;;;;;;;;;;;8.78;77.26;96283.16;5115882;27;19924;-76
2023/04/10 08:26:05;;;;;;;;;;;;;;;9.12;73.20;96284.94;5111217;27;19924;-75
2023/04/10 08:28:32;;;;;;;;;;;;;;;9.35;73.38;96289.84;5122789;27;19920;-75
2023/04/10 08:30:58;;;;;;;;;;;;;;;9.53;72.60;96282.06;5113990;27;19963;-75
2023/04/10 08:33:24;;;;;;;;;;;;;;;9.38;70.05;96286.25;5121568;27;19923;-75
2023/04/10 08:35:51;;;;;;;;;;;;;;;9.51;69.42;96289.06;5112651;27;19920;-75
2023/04/10 08:38:20;;;;;;;;;;;;;;;9.63;68.55;96288.44;5114321;28;19927;-75
2023/04/10 08:40:46;;;;;;;;;;;;;;;10.13;65.95;96301.38;5125771;27;19919;-75
2023/04/10 08:43:12;;;;;;;;;;;;;;;10.27;61.46;96286.88;5105354;27;19923;-74
2023/04/10 08:45:40;;;;;;;;;;;;;;;10.61;60.46;96286.75;5120220;27;19927;-75
2023/04/10 08:48:08;;;;;;;;;;;;;;;10.94;60.04;96292.72;5114208;28;19927;-75
2023/04/10 08:50:35;;;;;;;;;;;;;;;10.79;59.62;96292.69;5124255;27;19920;-74
2023/04/10 08:53:05;;;;;;;;;;;;;;;11.39;59.01;96290.13;5097451;27;19974;-75
2023/04/10 08:55:33;;;;;;;;;;;;;;;10.78;59.49;96287.56;5126742;27;19942;-75
2023/04/10 08:57:59;;;;;;;;;;;;;;;11.18;57.83;96288.75;5110223;28;20378;-75
2023/04/10 09:00:26;;;;;;;;;;;;;;;11.27;58.49;96288.25;5114147;28;19955;-75
2023/04/10 09:02:56;;;;;;;;;;;;;;;11.30;57.47;96279.44;5103079;27;19919;-74
2023/04/10 09:05:23;;;;;;;;;;;;;;;11.72;56.34;96280.47;5105331;27;19926;-75
2023/04/10 09:07:50;;;;;;;;;;;;;;;11.46;53.36;96269.88;5120125;27;19920;-75
2023/04/10 09:10:16;;;;;;;;;;;;;;;11.93;52.86;96268.00;5097079;27;19924;-75
2023/04/10 09:12:45;;;;;;;;;;;;;;;11.94;48.78;96267.06;5117267;27;19926;-76
2023/04/10 09:15:12;;;;;;;;;;;;;;;12.28;46.40;96258.06;5118428;27;19952;-76
2023/04/10 09:17:54;;;;;;;;;;;;;;;12.48;44.34;96257.66;5108037;27;19927;-76
2023/04/10 09:20:21;;;;;;;;;;;;;;;12.17;45.04;96250.09;5120246;27;19920;-75
2023/04/10 09:22:47;;;;;;;;;;;;;;;12.64;47.26;96254.09;5113388;27;19954;-75
2023/04/10 09:25:29;;;;;;;;;;;;;;;12.80;47.37;96247.00;5122732;27;19926;-76
2023/04/10 09:28:01;;;;;;;;;;;;;;;13.36;44.52;96252.06;5107735;27;19924;-76
2023/04/10 09:30:33;;;;;;;;;;;;;;;13.63;45.07;96242.41;5120602;27;19924;-75
2023/04/10 09:32:59;;;;;;;;;;;;;;;13.45;44.76;96241.88;5110814;27;19962;-75
2023/04/10 09:35:34;;;;;;;;;;;;;;;13.70;45.54;96240.25;5115149;27;19924;-76
2023/04/10 09:38:01;;;;;;;;;;;;;;;13.96;44.66;96234.06;5113932;27;20292;-75
2023/04/10 09:40:27;;;;;;;;;;;;;;;14.06;44.92;96233.47;5116905;27;19928;-76
2023/04/10 09:42:54;;;;;;;;;;;;;;;14.41;46.13;96229.19;5114102;27;19920;-76
2023/04/10 09:45:22;;;;;;;;;;;;;;;14.32;42.79;96226.44;5117238;27;19926;-76
2023/04/10 09:48:01;;;;;;;;;;;;;;;14.14;45.77;96215.53;5115332;27;19920;-76
2023/04/10 09:50:34;;;;;;;;;;;;;;;14.61;45.91;96220.00;5124893;27;19924;-76
2023/04/10 09:53:00;;;;;;;;;;;;;;;14.94;43.72;96208.91;5110770;27;19920;-76
2023/04/10 09:55:26;;;;;;;;;;;;;;;14.53;40.81;96204.06;5123462;27;20010;-75
2023/04/10 09:57:53;;;;;;;;;;;;;;;14.57;42.64;96205.50;5116774;27;19927;-75
2023/04/10 10:00:20;;;;;;;;;;;;;;;14.27;41.16;96205.88;5105239;27;19920;-76
2023/04/10 10:02:48;;;;;;;;;;;;;;;14.37;41.09;96193.06;5120371;27;19927;-75
2023/04/10 10:05:15;;;;;;;;;;;;;;;14.50;40.32;96189.50;5104758;27;19920;-76
2023/04/10 10:07:41;;;;;;;;;;;;;;;14.61;41.72;96190.47;5123578;27;19919;-75
2023/04/10 10:10:08;;;;;;;;;;;;;;;14.69;39.02;96180.34;5110031;27;19928;-76
2023/04/10 10:12:36;;;;;;;;;;;;;;;14.63;39.52;96180.78;5124973;27;20393;-75
2023/04/10 10:15:07;;;;;;;;;;;;;;;14.44;40.09;96182.09;5114739;27;19920;-76
2023/04/10 10:17:36;;;;;;;;;;;;;;;14.63;39.02;96175.56;5113897;27;19934;-75
2023/04/10 10:20:05;;;;;;;;;;;;;;;14.81;40.51;96176.03;5114603;27;19919;-76
2023/04/10 10:22:32;;;;;;;;;;;;;;;14.80;38.60;96169.16;5117397;27;19930;-75
2023/04/10 10:24:59;;;;;;;;;;;;;;;14.88;42.64;96172.84;5118063;27;19927;-76
2023/04/10 10:27:26;;;;;;;;;;;;;;;14.87;44.18;96168.59;5108215;27;20525;-75
2023/04/10 10:29:53;;;;;;;;;;;;;;;14.64;39.91;96161.59;5126762;27;19923;-75
2023/04/10 10:32:20;;;;;;;;;;;;;;;14.57;41.42;96161.19;5108605;27;19920;-75
2023/04/10 10:34:47;;;;;;;;;;;;;;;14.73;39.87;96159.16;5115866;27;19927;-75
2023/04/10 10:37:15;;;;;;;;;;;;;;;14.69;40.29;96149.91;5114572;27;19963;-76
2023/04/10 10:39:44;;;;;;;;;;;;;;;14.74;39.60;96155.59;5121507;27;19924;-76
2023/04/10 10:42:15;;;;;;;;;;;;;;;14.72;38.58;96154.03;5110965;27;19919;-76
2023/04/10 10:44:44;;;;;;;;;;;;;;;14.79;38.56;96149.22;5103572;27;19925;-76
2023/04/10 10:47:14;;;;;;;;;;;;;;;14.90;38.95;96155.28;5115352;27;19923;-76
2023/04/10 10:49:54;;;;;;;;;;;;;;;14.97;39.82;96150.47;5119533;27;20405;-76
2023/04/10 10:52:41;;;;;;;;;;;;;;;15.38;44.68;96147.34;5117977;28;19926;-76
2023/04/10 10:55:30;;;;;;;;;;;;;;;15.42;38.27;96140.94;5118966;28;19970;-75
2023/04/10 10:57:57;;;;;;;;;;;;;;;15.47;39.58;96143.22;5106099;28;19946;-76
2023/04/10 11:00:24;;;;;;;;;;;;;;;15.33;38.70;96138.22;5114291;28;20297;-75
2023/04/10 11:03:05;;;;;;;;;;;;;;;15.37;39.11;96142.25;5115415;28;19919;-75
2023/04/10 11:05:51;;;;;;;;;;;;;;;15.60;38.10;96130.06;5119326;28;19931;-75
2023/04/10 11:08:35;;;;;;;;;;;;;;;15.36;38.18;96131.00;5121500;28;19920;-77
2023/04/10 11:11:02;;;;;;;;;;;;;;;15.34;43.17;96126.81;5112902;28;20052;-76
2023/04/10 11:13:28;;;;;;;;;;;;;;;15.72;39.33;96124.75;5125497;28;19919;-76
2023/04/10 11:15:56;;;;;;;;;;;;;;;15.79;39.27;96119.88;5105082;28;19920;-76
2023/04/10 11:18:57;;;;;;;;;;;;;;;15.93;43.09;96119.63;5112652;28;19924;-76
2023/04/10 11:21:25;;;;;;;;;;;;;;;15.99;39.66;96118.31;5102553;28;19973;-76
2023/04/10 11:24:03;;;;;;;;;;;;;;;15.48;36.99;96113.56;5114853;28;19919;-75
2023/04/10 11:26:37;;;;;;;;;;;;;;;15.83;38.47;96107.41;5119400;27;19920;-76
2023/04/10 11:29:03;;;;;;;;;;;;;;;15.25;37.50;96099.66;5123748;27;20302;-76
2023/04/10 11:31:30;;;;;;;;;;;;;;;15.54;43.29;96104.44;5115597;27;19920;-76
2023/04/10 11:34:00;;;;;;;;;;;;;;;15.67;39.37;96106.00;5121208;27;19920;-76
2023/04/10 11:36:27;;;;;;;;;;;;;;;15.50;36.41;96106.44;5112382;27;19924;-76
2023/04/10 11:38:54;;;;;;;;;;;;;;;15.39;35.23;96098.63;5117118;27;19920;-76
2023/04/10 11:41:26;;;;;;;;;;;;;;;15.35;37.78;96090.19;5122523;27;19977;-76
2023/04/10 11:43:52;;;;;;;;;;;;;;;15.41;38.94;96091.47;5120078;27;19966;-76
2023/04/10 11:46:19;;;;;;;;;;;;;;;15.50;36.56;96093.41;5123247;27;19920;-75
2023/04/10 11:48:46;;;;;;;;;;;;;;;15.60;35.88;96073.44;5110780;27;20381;-75
2023/04/10 11:51:13;;;;;;;;;;;;;;;15.49;35.28;96073.44;5101871;27;19986;-76
2023/04/10 11:53:40;;;;;;;;;;;;;;;15.59;34.05;96066.56;5105294;27;19919;-76
2023/04/10 11:56:14;;;;;;;;;;;;;;;15.77;35.28;96056.50;5123786;27;20304;-76
2023/04/10 11:58:42;;;;;;;;;;;;;;;15.54;33.94;96060.06;5112317;27;19919;-75
2023/04/10 12:01:13;;;;;;;;;;;;;;;15.67;35.80;96058.16;5118372;27;19927;-76
2023/04/10 12:03:40;;;;;;;;;;;;;;;15.66;34.74;96054.72;5122581;27;19959;-76
2023/04/10 12:06:08;;;;;;;;;;;;;;;15.81;35.30;96047.47;5118601;27;19953;-75
2023/04/10 12:08:35;;;;;;;;;;;;;;;15.89;34.74;96049.47;5116854;27;19966;-75
2023/04/10 12:11:02;;;;;;;;;;;;;;;15.76;34.64;96049.63;5115259;28;19931;-75
2023/04/10 12:13:29;;;;;;;;;;;;;;;15.80;35.78;96051.03;5133239;27;19919;-75
2023/04/10 12:15:59;;;;;;;;;;;;;;;15.77;32.17;96040.81;5117417;27;19920;-75
2023/04/10 12:18:26;;;;;;;;;;;;;;;16.06;32.74;96048.97;5107605;28;19920;-75
2023/04/10 12:20:55;;;;;;;;;;;;;;;15.97;32.14;96053.13;5111168;27;19920;-75
2023/04/10 12:23:21;;;;;;;;;;;;;;;15.85;33.53;96042.84;5114811;28;19962;-75
2023/04/10 12:25:47;;;;;;;;;;;;;;;15.80;34.56;96045.81;5111636;27;19923;-75
2023/04/10 12:28:17;;;;;;;;;;;;;;;15.86;35.90;96040.09;5113560;28;19926;-75
2023/04/10 12:30:46;;;;;;;;;;;;;;;15.88;34.03;96042.59;5113719;27;19919;-75
2023/04/10 12:33:13;;;;;;;;;;;;;;;15.96;34.74;96027.97;5124018;27;20405;-75
2023/04/10 12:35:41;;;;;;;;;;;;;;;16.18;32.92;96021.84;5100591;28;19927;-75
2023/04/10 12:38:07;;;;;;;;;;;;;;;16.30;32.74;96025.22;5117308;27;19931;-75
2023/04/10 12:40:33;;;;;;;;;;;;;;;16.11;32.26;96019.84;5102469;28;19924;-75
2023/04/10 12:43:00;;;;;;;;;;;;;;;16.37;31.70;96015.94;5101962;28;19921;-75
2023/04/10 12:45:41;;;;;;;;;;;;;;;16.52;31.30;96026.09;5109280;28;20312;-75